Time;durP1;ratioP1;P1;durP2;ratioP2;P2;SDS_P1;SDS_P2;PMS_P1;PMS_P2;Temp;Humidity;BMP_temperature;BMP_pressure;BME280_temperature;BME280_humidity;BME280_pressure;Samples;Min_cycle;Max_cycle;Signal;HPM_P1;HPM_P2
2021/10/16 00:01:39;;;;;;;6.10;4.38;;;;;;;3.29;100.00;95443.47;4975447;28;20030;-63
2021/10/16 00:04:04;;;;;;;6.68;4.40;;;;;;;3.28;100.00;95441.03;4961840;28;20505;-64
2021/10/16 00:06:29;;;;;;;6.78;4.32;;;;;;;3.27;100.00;95442.88;4995894;28;20025;-64
2021/10/16 00:08:58;;;;;;;5.82;4.28;;;;;;;3.28;100.00;95444.50;4978329;28;20026;-64
2021/10/16 00:11:23;;;;;;;9.70;4.70;;;;;;;3.26;100.00;95453.66;4995400;28;20026;-64
2021/10/16 00:13:48;;;;;;;7.15;4.93;;;;;;;3.20;100.00;95442.88;4977594;28;20105;-64
2021/10/16 00:16:14;;;;;;;6.78;4.72;;;;;;;3.22;100.00;95447.16;4995054;28;20030;-64
2021/10/16 00:18:39;;;;;;;8.43;4.43;;;;;;;3.20;100.00;95450.00;4978156;28;20022;-64
2021/10/16 00:21:05;;;;;;;7.68;4.78;;;;;;;3.17;100.00;95445.16;4977881;28;20378;-65
2021/10/16 00:23:31;;;;;;;5.97;4.50;;;;;;;3.12;100.00;95445.75;4976576;28;20038;-64
2021/10/16 00:25:59;;;;;;;8.02;5.00;;;;;;;3.04;100.00;95453.09;4994572;28;20029;-63
2021/10/16 00:28:27;;;;;;;7.63;4.70;;;;;;;2.97;100.00;95444.41;4976370;28;20374;-59
2021/10/16 00:30:53;;;;;;;7.82;5.20;;;;;;;2.95;100.00;95452.53;4993796;28;20037;-59
2021/10/16 00:33:21;;;;;;;7.38;4.50;;;;;;;2.91;100.00;95446.84;4994973;28;20390;-58
2021/10/16 00:35:47;;;;;;;7.50;4.97;;;;;;;2.86;100.00;95448.50;4977560;28;20053;-59
2021/10/16 00:38:12;;;;;;;7.82;5.30;;;;;;;2.81;100.00;95448.28;4976903;28;20030;-57
2021/10/16 00:40:38;;;;;;;6.55;4.63;;;;;;;2.76;100.00;95450.75;4994632;28;20474;-58
2021/10/16 00:43:03;;;;;;;6.65;5.18;;;;;;;2.75;100.00;95449.13;4977260;28;20037;-62
2021/10/16 00:45:28;;;;;;;7.75;4.45;;;;;;;2.73;100.00;95453.81;4994299;28;20109;-54
2021/10/16 00:47:54;;;;;;;6.22;4.30;;;;;;;2.70;100.00;95447.09;4994154;28;20073;-56
2021/10/16 00:50:21;;;;;;;7.05;4.95;;;;;;;2.64;100.00;95447.13;4960276;28;20026;-58
2021/10/16 00:52:48;;;;;;;6.82;4.05;;;;;;;2.59;100.00;95447.72;4977141;28;20120;-59
2021/10/16 00:55:15;;;;;;;10.43;4.80;;;;;;;2.51;100.00;95440.03;4960768;28;20033;-59
2021/10/16 00:57:42;;;;;;;5.85;4.50;;;;;;;2.44;100.00;95440.03;4993759;28;20026;-59
2021/10/16 01:00:09;;;;;;;8.60;5.40;;;;;;;2.43;100.00;95443.69;4993836;28;20026;-57
2021/10/16 01:02:35;;;;;;;6.55;4.85;;;;;;;2.43;100.00;95442.88;4993959;28;20401;-61
2021/10/16 01:05:01;;;;;;;9.13;5.20;;;;;;;2.49;100.00;95445.50;4977101;28;20396;-57
2021/10/16 01:07:30;;;;;;;7.47;4.90;;;;;;;2.57;100.00;95444.47;4976980;28;20030;-57
2021/10/16 01:09:55;;;;;;;10.38;5.05;;;;;;;2.66;100.00;95445.91;4976119;28;20572;-61
2021/10/16 01:12:30;;;;;;;8.07;5.15;;;;;;;2.71;100.00;95443.44;4993318;28;20109;-58
2021/10/16 01:15:04;;;;;;;7.40;5.20;;;;;;;2.74;100.00;95439.59;4993659;28;20026;-59
2021/10/16 01:17:31;;;;;;;8.43;5.45;;;;;;;2.78;100.00;95435.50;4994220;28;20077;-57
2021/10/16 01:20:11;;;;;;;7.72;5.82;;;;;;;2.81;100.00;95427.94;4976383;28;20038;-57
2021/10/16 01:22:38;;;;;;;10.02;5.50;;;;;;;2.82;100.00;95437.53;4994169;28;20443;-56
2021/10/16 01:25:06;;;;;;;9.85;5.93;;;;;;;2.78;100.00;95433.66;4960149;28;20082;-62
2021/10/16 01:27:32;;;;;;;9.45;6.13;;;;;;;2.72;100.00;95431.03;4993764;28;20073;-62
2021/10/16 01:30:09;;;;;;;7.55;5.60;;;;;;;2.67;100.00;95436.94;4976694;28;20376;-56
2021/10/16 01:32:36;;;;;;;8.00;5.20;;;;;;;2.66;100.00;95426.56;4976540;28;20026;-60
2021/10/16 01:35:02;;;;;;;10.40;5.85;;;;;;;2.59;100.00;95430.03;4976106;28;20026;-58
2021/10/16 01:37:28;;;;;;;9.05;6.63;;;;;;;2.61;100.00;95429.84;4976246;28;20396;-58
2021/10/16 01:39:53;;;;;;;8.85;5.85;;;;;;;2.65;100.00;95423.13;4975700;28;20125;-57
2021/10/16 01:42:18;;;;;;;9.30;6.28;;;;;;;2.63;100.00;95421.69;4959586;28;20030;-58
2021/10/16 01:44:44;;;;;;;13.73;6.22;;;;;;;2.59;100.00;95423.94;4976033;28;20105;-59
2021/10/16 01:47:09;;;;;;;10.75;6.85;;;;;;;2.57;100.00;95421.50;4975836;28;20041;-60
2021/10/16 01:49:37;;;;;;;9.45;6.75;;;;;;;2.57;100.00;95412.75;4992360;28;20516;-59
2021/10/16 01:52:03;;;;;;;9.00;6.15;;;;;;;2.59;100.00;95423.94;4976531;28;20026;-54
2021/10/16 01:54:34;;;;;;;9.65;6.47;;;;;;;2.57;100.00;95413.56;4976216;28;20560;-59
2021/10/16 01:57:00;;;;;;;10.15;6.00;;;;;;;2.52;100.00;95417.84;4976163;28;20041;-58
2021/10/16 01:59:26;;;;;;;8.30;5.93;;;;;;;2.46;100.00;95418.66;4993044;28;20034;-59
2021/10/16 02:01:53;;;;;;;10.50;6.63;;;;;;;2.37;100.00;95419.91;4975397;28;20101;-59
2021/10/16 02:04:18;;;;;;;8.85;5.90;;;;;;;2.28;100.00;95417.50;4956260;28;20397;-54
2021/10/16 02:06:44;;;;;;;9.45;6.28;;;;;;;2.23;100.00;95413.81;4967229;28;20122;-57
2021/10/16 02:09:10;;;;;;;8.30;6.07;;;;;;;2.22;100.00;95414.84;4958827;28;20576;-57
2021/10/16 02:11:35;;;;;;;9.90;6.45;;;;;;;2.27;100.00;95417.66;4975703;28;20536;-57
2021/10/16 02:14:03;;;;;;;9.38;6.38;;;;;;;2.31;100.00;95414.44;4975643;28;20076;-54
2021/10/16 02:16:28;;;;;;;9.50;6.43;;;;;;;2.38;100.00;95416.22;4975023;28;20030;-57
2021/10/16 02:18:59;;;;;;;8.73;6.30;;;;;;;2.38;100.00;95413.59;4992592;28;20093;-56
2021/10/16 02:21:28;;;;;;;11.10;6.95;;;;;;;2.36;100.00;95413.00;4975532;28;20060;-54
2021/10/16 02:23:57;;;;;;;9.07;6.07;;;;;;;2.30;100.00;95407.53;4975498;28;20434;-54
2021/10/16 02:26:22;;;;;;;9.43;5.97;;;;;;;2.22;100.00;95405.09;4992668;28;20154;-56
2021/10/16 02:28:48;;;;;;;9.07;6.82;;;;;;;2.16;100.00;95403.25;4974988;28;20105;-57
2021/10/16 02:31:19;;;;;;;9.55;6.82;;;;;;;2.10;100.00;95406.72;4992919;28;20481;-58
2021/10/16 02:33:49;;;;;;;9.50;6.20;;;;;;;2.06;100.00;95400.19;4975209;28;20413;-54
2021/10/16 02:36:14;;;;;;;9.43;6.82;;;;;;;2.05;100.00;95403.84;4974102;28;20523;-57
2021/10/16 02:38:40;;;;;;;8.35;6.28;;;;;;;2.06;100.00;95408.13;4992355;28;20117;-60
2021/10/16 02:41:08;;;;;;;10.60;6.88;;;;;;;2.26;100.00;95401.00;4992492;28;20370;-56
2021/10/16 02:43:33;;;;;;;11.98;7.68;;;;;;;2.47;100.00;95392.03;4958988;28;20028;-62
2021/10/16 02:45:59;;;;;;;13.38;7.78;;;;;;;2.62;100.00;95383.88;4975187;28;20026;-58
2021/10/16 02:48:24;;;;;;;11.20;7.40;;;;;;;2.67;100.00;95378.75;4975151;28;20061;-59
2021/10/16 02:50:52;;;;;;;12.77;7.38;;;;;;;2.70;100.00;95380.97;4992465;28;20026;-60
2021/10/16 02:53:21;;;;;;;10.88;7.78;;;;;;;2.69;100.00;95381.19;4975452;28;20037;-61
2021/10/16 02:55:58;;;;;;;11.85;7.60;;;;;;;2.62;100.00;95378.59;4975084;28;20037;-59
2021/10/16 02:58:24;;;;;;;13.90;8.05;;;;;;;2.54;100.00;95376.97;4991614;28;20026;-59
2021/10/16 03:00:52;;;;;;;11.50;7.60;;;;;;;2.48;100.00;95377.78;4975094;28;20371;-59
2021/10/16 03:03:23;;;;;;;11.25;7.43;;;;;;;2.46;100.00;95376.38;4992522;28;20097;-59
2021/10/16 03:05:48;;;;;;;12.23;7.93;;;;;;;2.45;100.00;95380.03;4992340;28;20028;-58
2021/10/16 03:08:14;;;;;;;10.15;7.50;;;;;;;2.48;100.00;95384.91;4992321;28;20485;-59
2021/10/16 03:10:43;;;;;;;10.48;7.57;;;;;;;2.49;100.00;95383.88;4974824;28;20117;-60
2021/10/16 03:13:09;;;;;;;16.90;8.38;;;;;;;2.49;100.00;95382.03;4992455;28;20026;-59
2021/10/16 03:15:34;;;;;;;11.27;7.65;;;;;;;2.48;100.00;95391.00;4992255;28;20040;-59
2021/10/16 03:17:59;;;;;;;13.80;7.85;;;;;;;2.46;100.00;95387.75;4991763;28;20101;-59
2021/10/16 03:20:25;;;;;;;12.13;7.90;;;;;;;2.43;100.00;95395.28;4992328;28;20465;-58
2021/10/16 03:22:53;;;;;;;13.10;8.35;;;;;;;2.49;100.00;95383.88;4974737;28;20536;-59
2021/10/16 03:25:22;;;;;;;12.05;8.15;;;;;;;2.54;100.00;95386.72;4992194;28;20026;-57
2021/10/16 03:27:50;;;;;;;11.93;7.40;;;;;;;2.60;100.00;95392.00;4973872;28;20409;-56
2021/10/16 03:30:15;;;;;;;11.68;8.05;;;;;;;2.63;100.00;95393.44;4991650;28;20477;-52
2021/10/16 03:32:47;;;;;;;13.05;8.23;;;;;;;2.62;100.00;95397.09;4991952;28;20034;-58
2021/10/16 03:35:12;;;;;;;11.43;7.63;;;;;;;2.61;100.00;95398.13;4991759;28;20033;-53
2021/10/16 03:37:37;;;;;;;11.27;7.60;;;;;;;2.56;100.00;95388.13;4973376;28;20022;-59
2021/10/16 03:40:06;;;;;;;14.20;7.95;;;;;;;2.51;100.00;95387.16;4991218;28;20133;-62
2021/10/16 03:42:32;;;;;;;11.52;7.60;;;;;;;2.43;100.00;95387.38;4974563;28;20077;-54
2021/10/16 03:45:01;;;;;;;11.32;7.18;;;;;;;2.33;100.00;95388.59;4974361;28;20100;-55
2021/10/16 03:47:27;;;;;;;11.88;7.45;;;;;;;2.22;100.00;95389.22;4991307;28;20200;-57
2021/10/16 03:50:01;;;;;;;12.57;7.35;;;;;;;2.10;100.00;95392.69;4974096;28;20112;-54
2021/10/16 03:52:27;;;;;;;9.50;6.22;;;;;;;1.98;100.00;95388.03;4991226;28;20348;-59
2021/10/16 03:54:52;;;;;;;10.50;6.82;;;;;;;1.94;100.00;95393.91;4991430;28;20434;-57
2021/10/16 03:57:17;;;;;;;10.68;7.00;;;;;;;2.00;100.00;95386.00;4957593;28;20113;-62
2021/10/16 03:59:43;;;;;;;10.60;7.85;;;;;;;2.08;100.00;95390.25;4974189;28;20390;-59
2021/10/16 04:02:09;;;;;;;12.95;9.20;;;;;;;2.10;100.00;95395.34;4974109;28;20406;-61
2021/10/16 04:04:35;;;;;;;11.80;7.95;;;;;;;2.13;100.00;95392.28;4991650;28;20028;-59
2021/10/16 04:07:00;;;;;;;12.32;8.18;;;;;;;2.12;100.00;95391.47;4973880;28;20405;-61
2021/10/16 04:09:25;;;;;;;11.57;7.45;;;;;;;2.15;100.00;95390.25;4973421;28;20043;-56
2021/10/16 04:11:54;;;;;;;13.30;7.72;;;;;;;2.13;100.00;95387.81;4974431;28;20037;-60
2021/10/16 04:14:20;;;;;;;11.45;7.93;;;;;;;2.09;100.00;95391.06;4991364;28;20034;-55
2021/10/16 04:16:48;;;;;;;11.35;7.40;;;;;;;2.02;100.00;95393.72;4974115;28;20070;-60
2021/10/16 04:19:14;;;;;;;9.57;7.03;;;;;;;1.96;100.00;95398.00;4991005;28;20026;-58
2021/10/16 04:21:39;;;;;;;11.68;6.85;;;;;;;1.90;100.00;95398.78;4990832;28;20496;-57
2021/10/16 04:24:08;;;;;;;10.52;6.72;;;;;;;1.84;100.00;95404.06;4973914;28;20085;-59
2021/10/16 04:26:33;;;;;;;10.65;7.15;;;;;;;1.78;100.00;95410.16;4991235;28;20109;-61
2021/10/16 04:29:05;;;;;;;12.73;7.40;;;;;;;1.76;100.00;95410.38;4973980;28;20389;-61
2021/10/16 04:31:33;;;;;;;11.85;7.82;;;;;;;1.76;100.00;95399.81;4991735;28;20381;-59
2021/10/16 04:33:59;;;;;;;12.38;7.68;;;;;;;1.77;100.00;95401.44;4973714;28;20026;-62
2021/10/16 04:36:25;;;;;;;14.90;7.32;;;;;;;1.77;100.00;95408.53;4973485;28;20034;-59
2021/10/16 04:38:58;;;;;;;12.68;7.70;;;;;;;1.78;100.00;95403.06;4973301;28;20033;-61
2021/10/16 04:41:34;;;;;;;11.45;8.07;;;;;;;1.79;100.00;95403.88;4991163;28;20137;-61
2021/10/16 04:44:00;;;;;;;11.35;6.95;;;;;;;1.81;100.00;95405.28;4957939;28;20042;-58
2021/10/16 04:46:25;;;;;;;14.95;7.30;;;;;;;1.80;100.00;95410.78;4973510;28;20077;-60
2021/10/16 04:48:54;;;;;;;12.80;7.15;;;;;;;1.75;100.00;95403.47;4974950;28;20030;-59
2021/10/16 04:51:19;;;;;;;10.90;7.60;;;;;;;1.70;100.00;95404.06;4994397;28;20026;-59
2021/10/16 04:53:50;;;;;;;10.55;7.18;;;;;;;1.63;100.00;95405.09;4977113;28;20077;-59
2021/10/16 04:56:16;;;;;;;10.43;7.63;;;;;;;1.52;100.00;95403.84;4977092;28;20022;-58
2021/10/16 04:58:41;;;;;;;13.43;7.63;;;;;;;1.45;100.00;95411.75;4994293;28;20065;-60
2021/10/16 05:01:06;;;;;;;9.60;7.10;;;;;;;1.38;100.00;95402.19;4994168;28;20074;-63
2021/10/16 05:03:35;;;;;;;14.20;7.30;;;;;;;1.32;100.00;95400.34;4977119;28;20053;-60
2021/10/16 05:06:03;;;;;;;9.60;7.22;;;;;;;1.26;100.00;95407.22;4994429;28;20036;-58
2021/10/16 05:08:32;;;;;;;10.27;7.05;;;;;;;1.26;100.00;95404.59;4977025;28;20065;-57
2021/10/16 05:10:57;;;;;;;12.48;7.22;;;;;;;1.36;100.00;95406.84;4960534;28;20080;-58
2021/10/16 05:13:23;;;;;;;9.60;6.90;;;;;;;1.34;100.00;95407.06;4994403;28;20026;-55
2021/10/16 05:15:48;;;;;;;12.43;7.55;;;;;;;1.30;100.00;95397.06;4976479;28;20058;-56
2021/10/16 05:18:17;;;;;;;11.82;7.65;;;;;;;1.26;100.00;95401.94;4976345;28;20390;-62
2021/10/16 05:20:49;;;;;;;14.25;7.80;;;;;;;1.19;100.00;95400.28;4993931;28;20085;-59
2021/10/16 05:23:21;;;;;;;9.80;6.35;;;;;;;1.15;100.00;95400.69;4976786;28;20049;-60
2021/10/16 05:25:55;;;;;;;10.43;7.25;;;;;;;1.09;100.00;95405.97;4976661;28;20058;-61
2021/10/16 05:28:21;;;;;;;13.77;7.47;;;;;;;1.03;100.00;95406.75;4993571;28;20299;-59
2021/10/16 05:30:50;;;;;;;13.32;7.45;;;;;;;0.94;100.00;95408.75;4993518;28;20512;-60
2021/10/16 05:33:15;;;;;;;11.43;6.80;;;;;;;0.92;100.00;95407.31;4994023;28;20022;-61
2021/10/16 05:35:43;;;;;;;10.75;7.47;;;;;;;0.92;100.00;95409.97;4992158;28;20026;-62
2021/10/16 05:38:09;;;;;;;12.82;7.28;;;;;;;0.92;100.00;95413.41;4975394;28;20034;-61
2021/10/16 05:40:34;;;;;;;11.27;7.72;;;;;;;0.99;100.00;95406.34;4959300;28;20034;-60
2021/10/16 05:42:59;;;;;;;12.60;7.65;;;;;;;1.05;100.00;95416.09;4971542;28;20041;-61
2021/10/16 05:45:25;;;;;;;10.80;7.22;;;;;;;1.09;100.00;95416.53;4985978;28;20038;-58
2021/10/16 05:47:50;;;;;;;10.60;7.05;;;;;;;1.09;100.00;95413.88;4974096;28;20438;-56
2021/10/16 05:50:16;;;;;;;9.60;7.38;;;;;;;1.07;100.00;95411.44;4959466;28;20030;-59
2021/10/16 05:52:41;;;;;;;15.57;8.15;;;;;;;1.03;100.00;95407.56;4985314;28;20032;-56
2021/10/16 05:55:07;;;;;;;10.70;7.18;;;;;;;0.96;100.00;95409.34;4996378;28;20028;-60
2021/10/16 05:57:33;;;;;;;11.57;7.72;;;;;;;0.91;100.00;95414.41;4992828;28;20033;-59
2021/10/16 05:59:58;;;;;;;14.00;8.45;;;;;;;0.94;100.00;95415.84;4992888;28;20038;-62
2021/10/16 06:02:24;;;;;;;12.93;7.70;;;;;;;0.99;100.00;95408.16;4993061;28;20497;-58
2021/10/16 06:04:49;;;;;;;12.43;7.45;;;;;;;1.03;100.00;95410.19;4975940;28;20026;-57
2021/10/16 06:07:14;;;;;;;13.40;7.88;;;;;;;1.03;100.00;95419.94;4975982;28;20031;-59
2021/10/16 06:09:40;;;;;;;12.05;7.45;;;;;;;0.97;100.00;95410.97;4993215;28;20486;-60
2021/10/16 06:12:05;;;;;;;11.75;8.15;;;;;;;0.91;100.00;95416.25;4992546;28;20030;-59
2021/10/16 06:14:31;;;;;;;12.40;8.05;;;;;;;0.92;100.00;95413.41;4975582;28;20439;-60
2021/10/16 06:16:56;;;;;;;13.48;8.02;;;;;;;0.98;100.00;95419.72;4993165;28;20033;-59
2021/10/16 06:19:21;;;;;;;12.02;8.35;;;;;;;1.04;100.00;95417.09;4992954;28;20022;-57
2021/10/16 06:21:47;;;;;;;13.68;8.90;;;;;;;1.18;100.00;95417.97;4977560;28;20013;-61
2021/10/16 06:24:12;;;;;;;15.63;8.73;;;;;;;1.27;100.00;95422.03;5000834;28;20101;-59
2021/10/16 06:26:38;;;;;;;15.15;9.10;;;;;;;1.34;100.00;95422.06;4992188;28;20107;-61
2021/10/16 06:29:03;;;;;;;13.93;9.50;;;;;;;1.35;100.00;95431.63;4993329;28;20077;-61
2021/10/16 06:31:28;;;;;;;14.60;8.70;;;;;;;1.37;100.00;95421.66;4978833;28;20516;-63
2021/10/16 06:33:54;;;;;;;13.85;9.13;;;;;;;1.44;100.00;95427.78;4975638;28;20413;-63
2021/10/16 06:36:19;;;;;;;14.30;9.07;;;;;;;1.51;100.00;95425.16;4992953;28;20022;-63
2021/10/16 06:38:44;;;;;;;12.20;9.07;;;;;;;1.56;100.00;95425.38;4992816;28;20026;-62
2021/10/16 06:41:10;;;;;;;14.45;9.15;;;;;;;1.61;100.00;95425.56;4991704;28;20029;-63
2021/10/16 06:43:35;;;;;;;16.63;9.25;;;;;;;1.63;100.00;95428.84;4958773;28;20022;-61
2021/10/16 06:46:00;;;;;;;13.90;9.35;;;;;;;1.63;100.00;95427.03;4992976;28;20159;-61
2021/10/16 06:48:26;;;;;;;14.38;9.65;;;;;;;1.62;100.00;95430.66;4992506;28;20062;-63
2021/10/16 06:50:51;;;;;;;16.10;10.57;;;;;;;1.63;100.00;95428.84;4992113;28;20029;-63
2021/10/16 06:53:16;;;;;;;17.15;11.02;;;;;;;1.66;100.00;95439.00;4992413;28;20065;-63
2021/10/16 06:55:42;;;;;;;14.93;9.82;;;;;;;1.69;100.00;95436.75;4992154;28;20033;-63
2021/10/16 06:58:08;;;;;;;18.67;10.90;;;;;;;1.73;100.00;95443.25;4958757;28;20022;-64
2021/10/16 07:00:34;;;;;;;12.73;9.07;;;;;;;1.81;100.00;95439.63;4991739;28;20037;-64
2021/10/16 07:02:59;;;;;;;15.80;9.10;;;;;;;1.89;100.00;95446.53;4992152;28;20405;-63
2021/10/16 07:05:24;;;;;;;13.43;9.15;;;;;;;1.97;100.00;95449.00;4992457;28;20097;-64
2021/10/16 07:07:50;;;;;;;12.63;8.55;;;;;;;2.04;100.00;95453.25;4987813;28;20493;-63
2021/10/16 07:10:15;;;;;;;32.28;16.42;;;;;;;2.15;100.00;95451.03;4991417;28;20033;-61
2021/10/16 07:12:43;;;;;;;31.50;17.95;;;;;;;2.46;100.00;95440.63;4974377;28;20070;-64
2021/10/16 07:15:08;;;;;;;36.15;18.30;;;;;;;3.27;100.00;95436.75;4991927;28;20477;-64
2021/10/16 07:17:34;;;;;;;35.67;18.33;;;;;;;3.86;100.00;95425.00;4974342;28;20036;-64
2021/10/16 07:19:59;;;;;;;45.28;20.38;;;;;;;4.27;100.00;95425.31;4991762;28;20064;-63
2021/10/16 07:22:24;;;;;;;45.83;21.65;;;;;;;4.56;100.00;95417.72;4974724;28;20466;-63
2021/10/16 07:24:50;;;;;;;55.40;23.67;;;;;;;4.73;100.00;95413.44;4974368;28;20394;-64
2021/10/16 07:27:16;;;;;;;55.25;25.27;;;;;;;4.84;100.00;95415.34;4954714;28;20042;-64
2021/10/16 07:29:41;;;;;;;57.55;25.52;;;;;;;4.95;100.00;95413.81;4971054;28;20458;-62
2021/10/16 07:32:07;;;;;;;55.75;26.08;;;;;;;5.04;100.00;95406.38;4970561;28;20061;-64
2021/10/16 07:34:32;;;;;;;56.90;25.00;;;;;;;5.05;100.00;95411.47;4971304;28;20106;-64
2021/10/16 07:36:58;;;;;;;53.08;23.63;;;;;;;5.06;100.00;95407.75;4971289;28;20211;-64
2021/10/16 07:39:26;;;;;;;46.40;22.15;;;;;;;5.11;100.00;95407.13;4954527;28;20031;-64
2021/10/16 07:41:51;;;;;;;57.03;24.35;;;;;;;5.14;100.00;95402.16;4970757;28;20026;-63
2021/10/16 07:44:17;;;;;;;46.95;23.77;;;;;;;5.16;100.00;95405.41;4972093;28;20029;-64
2021/10/16 07:46:45;;;;;;;47.60;22.83;;;;;;;5.21;100.00;95410.88;4971927;28;20023;-64
2021/10/16 07:49:11;;;;;;;44.45;23.25;;;;;;;5.25;100.00;95405.91;4954946;28;20058;-64
2021/10/16 07:51:37;;;;;;;43.15;22.25;;;;;;;5.22;100.00;95412.47;4953626;28;20023;-64
2021/10/16 07:54:03;;;;;;;44.22;21.52;;;;;;;5.28;100.00;95421.38;4938558;28;20066;-65
2021/10/16 07:56:28;;;;;;;39.88;21.75;;;;;;;5.27;100.00;95418.97;4971453;28;20101;-64
2021/10/16 07:58:53;;;;;;;41.83;21.70;;;;;;;5.23;100.00;95411.44;4970855;28;20482;-62
2021/10/16 08:01:19;;;;;;;42.00;21.23;;;;;;;5.31;100.00;95417.47;4971147;28;20023;-65
2021/10/16 08:03:44;;;;;;;35.92;20.42;;;;;;;5.31;100.00;95415.63;4954923;28;20054;-64
2021/10/16 08:06:10;;;;;;;39.03;20.75;;;;;;;5.36;100.00;95413.13;4938977;28;20158;-65
2021/10/16 08:08:35;;;;;;;35.72;19.92;;;;;;;5.40;100.00;95413.47;4954240;28;20059;-65
2021/10/16 08:11:00;;;;;;;42.85;20.42;;;;;;;5.42;100.00;95409.56;4953805;28;20489;-65
2021/10/16 08:13:29;;;;;;;37.42;19.55;;;;;;;5.41;100.00;95410.59;4970377;28;20031;-64
2021/10/16 08:15:54;;;;;;;39.10;20.35;;;;;;;5.43;100.00;95418.38;4970268;28;20179;-65
2021/10/16 08:18:22;;;;;;;39.15;21.05;;;;;;;5.38;100.00;95419.00;4971582;28;20030;-65
2021/10/16 08:20:48;;;;;;;36.08;19.55;;;;;;;5.37;100.00;95419.25;4971321;28;20421;-65
2021/10/16 08:23:13;;;;;;;39.72;20.25;;;;;;;5.32;100.00;95425.25;4956887;28;20019;-65
2021/10/16 08:25:39;;;;;;;34.88;19.00;;;;;;;5.37;100.00;95429.88;4975568;28;20027;-65
2021/10/16 08:28:08;;;;;;;37.97;20.63;;;;;;;5.51;100.00;95421.50;4993124;28;20057;-65
2021/10/16 08:30:35;;;;;;;34.28;19.55;;;;;;;5.55;100.00;95421.88;4977076;28;20393;-65
2021/10/16 08:33:00;;;;;;;37.40;20.35;;;;;;;5.57;100.00;95426.97;4977647;28;20108;-65
2021/10/16 08:35:25;;;;;;;35.78;19.45;;;;;;;5.49;100.00;95420.09;4977610;28;20573;-65
2021/10/16 08:37:51;;;;;;;35.60;19.73;;;;;;;5.50;100.00;95429.69;4994659;28;20418;-65
2021/10/16 08:40:16;;;;;;;33.40;19.08;;;;;;;5.50;100.00;95432.34;4994191;28;20045;-65
2021/10/16 08:42:41;;;;;;;31.05;17.90;;;;;;;5.51;100.00;95436.63;4994506;28;20018;-66
2021/10/16 08:45:07;;;;;;;44.17;20.77;;;;;;;5.53;100.00;95426.56;4977179;28;20388;-65
2021/10/16 08:47:37;;;;;;;34.88;19.88;;;;;;;5.57;100.00;95442.91;4994857;28;20054;-65
2021/10/16 08:50:08;;;;;;;39.53;19.70;;;;;;;5.64;100.00;95441.75;4960663;28;20041;-66
2021/10/16 08:52:34;;;;;;;32.63;18.20;;;;;;;5.64;100.00;95432.97;4994527;28;20062;-64
2021/10/16 08:55:00;;;;;;;33.85;18.42;;;;;;;5.68;100.00;95444.78;4977276;28;20048;-66
2021/10/16 08:57:33;;;;;;;31.50;18.63;;;;;;;5.78;100.00;95445.88;4961223;28;20129;-65
2021/10/16 08:59:59;;;;;;;32.25;19.30;;;;;;;5.84;100.00;95436.19;4960587;28;20489;-65
2021/10/16 09:02:35;;;;;;;34.40;19.15;;;;;;;5.79;100.00;95444.03;4994615;28;20037;-66
2021/10/16 09:05:12;;;;;;;32.50;18.52;;;;;;;5.88;100.00;95436.56;4976927;28;20024;-65
2021/10/16 09:07:38;;;;;;;34.88;19.10;;;;;;;5.97;100.00;95438.69;4976927;28;20069;-65
2021/10/16 09:10:23;;;;;;;32.92;18.88;;;;;;;6.03;100.00;95444.94;4994012;28;20062;-65
2021/10/16 09:12:54;;;;;;;31.45;18.75;;;;;;;6.07;100.00;95451.41;4976888;28;20030;-65
2021/10/16 09:15:24;;;;;;;29.67;17.88;;;;;;;6.12;100.00;95448.91;4994465;28;20030;-65
2021/10/16 09:18:06;;;;;;;31.90;18.95;;;;;;;6.19;100.00;95446.16;5001871;28;20033;-65
2021/10/16 09:20:36;;;;;;;32.85;19.33;;;;;;;6.25;100.00;95443.38;4974847;28;20030;-65
2021/10/16 09:23:06;;;;;;;36.75;19.40;;;;;;;6.30;100.00;95450.69;4977275;28;20398;-64
2021/10/16 09:25:32;;;;;;;35.30;19.30;;;;;;;6.32;100.00;95453.91;4976815;28;20481;-65
2021/10/16 09:28:18;;;;;;;34.78;20.02;;;;;;;6.33;100.00;95453.69;4976499;28;20046;-66
2021/10/16 09:30:47;;;;;;;32.80;19.27;;;;;;;6.33;100.00;95459.00;4976134;28;20121;-65
2021/10/16 09:33:13;;;;;;;31.33;18.63;;;;;;;6.42;100.00;95454.16;4993988;28;20448;-65
2021/10/16 09:35:39;;;;;;;33.15;18.75;;;;;;;6.51;100.00;95457.28;4960233;28;20026;-63
2021/10/16 09:38:04;;;;;;;31.77;19.02;;;;;;;6.54;100.00;95462.16;4960742;28;20049;-65
2021/10/16 09:40:37;;;;;;;30.13;19.27;;;;;;;6.55;100.00;95463.78;4959864;28;20026;-64
2021/10/16 09:43:19;;;;;;;32.13;20.38;;;;;;;6.60;100.00;95467.34;4960547;28;20085;-65
2021/10/16 09:45:46;;;;;;;31.70;17.65;;;;;;;6.62;100.00;95462.63;4993940;28;20033;-65
2021/10/16 09:48:11;;;;;;;32.20;18.63;;;;;;;6.71;100.00;95468.41;4976584;28;20029;-65
2021/10/16 09:50:37;;;;;;;32.25;18.35;;;;;;;6.76;100.00;95465.06;4975850;28;20026;-66
2021/10/16 09:53:18;;;;;;;33.25;19.70;;;;;;;6.72;100.00;95459.38;4976473;28;20053;-65
2021/10/16 09:55:44;;;;;;;32.95;19.25;;;;;;;6.80;100.00;95460.88;4976250;28;20058;-65
2021/10/16 09:58:10;;;;;;;28.90;17.70;;;;;;;6.84;100.00;95462.88;4976379;28;20030;-65
2021/10/16 10:00:37;;;;;;;33.13;18.05;;;;;;;6.89;100.00;95470.16;4975968;28;20393;-65
2021/10/16 10:03:04;;;;;;;31.08;17.92;;;;;;;7.02;100.00;95459.25;4976446;28;20026;-65
2021/10/16 10:05:30;;;;;;;32.05;18.80;;;;;;;7.08;100.00;95450.34;4976213;28;20022;-64
2021/10/16 10:07:56;;;;;;;30.42;18.90;;;;;;;7.12;100.00;95448.00;4976211;28;20026;-65
2021/10/16 10:10:21;;;;;;;28.75;17.80;;;;;;;7.24;100.00;95444.28;4975480;28;20069;-65
2021/10/16 10:12:47;;;;;;;29.08;17.65;;;;;;;7.30;100.00;95455.88;4993494;28;20053;-65
2021/10/16 10:15:12;;;;;;;31.52;18.38;;;;;;;7.36;100.00;95441.59;4943927;28;20105;-65
2021/10/16 10:17:37;;;;;;;29.10;18.13;;;;;;;7.53;100.00;95445.13;4975742;28;20070;-65
2021/10/16 10:20:06;;;;;;;28.67;18.42;;;;;;;7.56;100.00;95451.84;4975506;28;20093;-64
2021/10/16 10:22:34;;;;;;;29.05;17.35;;;;;;;7.68;100.00;95443.81;4975929;28;20385;-64
2021/10/16 10:25:00;;;;;;;30.27;18.27;;;;;;;7.90;100.00;95441.28;4975900;28;20026;-63
2021/10/16 10:27:25;;;;;;;29.95;17.95;;;;;;;8.09;100.00;95434.69;4975733;28;20057;-64
2021/10/16 10:29:55;;;;;;;28.08;16.83;;;;;;;8.29;100.00;95444.91;4959332;28;20034;-65
2021/10/16 10:32:28;;;;;;;30.60;17.08;;;;;;;8.37;100.00;95436.56;4975515;28;20430;-64
2021/10/16 10:35:03;;;;;;;30.10;18.38;;;;;;;8.45;100.00;95440.66;4959450;28;20089;-65
2021/10/16 10:37:41;;;;;;;29.17;17.55;;;;;;;8.64;100.00;95434.84;4975283;28;20374;-62
2021/10/16 10:40:15;;;;;;;27.55;17.27;;;;;;;8.78;100.00;95427.28;4971880;28;20026;-66
2021/10/16 10:42:42;;;;;;;26.50;16.67;;;;;;;8.78;100.00;95421.13;4946743;28;20374;-64
2021/10/16 10:45:32;;;;;;;25.83;16.30;;;;;;;8.76;100.00;95416.03;4997517;28;20033;-65
2021/10/16 10:47:59;;;;;;;26.63;16.80;;;;;;;8.71;100.00;95421.31;4994966;28;20033;-65
2021/10/16 10:50:48;;;;;;;25.52;16.45;;;;;;;8.81;100.00;95407.31;5012117;28;20045;-65
2021/10/16 10:53:33;;;;;;;26.17;15.55;;;;;;;8.90;100.00;95397.81;4978135;28;20512;-64
2021/10/16 10:56:40;;;;;;;26.77;15.02;;;;;;;8.79;100.00;95393.38;4978529;28;20034;-65
2021/10/16 10:59:16;;;;;;;27.73;15.70;;;;;;;8.78;100.00;95391.75;5004584;28;20135;-65
2021/10/16 11:02:03;;;;;;;26.80;16.65;;;;;;;8.90;100.00;95384.44;4995733;28;20076;-64
2021/10/16 11:04:45;;;;;;;23.15;16.35;;;;;;;9.32;100.00;95375.91;4994090;28;20018;-64
2021/10/16 11:07:16;;;;;;;28.08;16.13;;;;;;;9.75;100.00;95358.97;5011498;28;20029;-65
2021/10/16 11:09:43;;;;;;;27.23;16.23;;;;;;;10.41;100.00;95346.19;4993214;28;20037;-64
2021/10/16 11:12:10;;;;;;;23.50;15.27;;;;;;;10.82;100.00;95327.69;4994078;28;20022;-65
2021/10/16 11:14:38;;;;;;;23.52;15.65;;;;;;;10.87;100.00;95319.72;4994114;28;20126;-65
2021/10/16 11:17:08;;;;;;;25.50;15.25;;;;;;;11.20;100.00;95302.41;5011737;28;20033;-65
2021/10/16 11:19:54;;;;;;;22.48;14.82;;;;;;;11.76;100.00;95276.50;4994113;28;20030;-64
2021/10/16 11:22:22;;;;;;;23.02;14.70;;;;;;;11.95;100.00;95251.88;4977514;28;20033;-65
2021/10/16 11:24:47;;;;;;;20.95;14.45;;;;;;;12.02;100.00;95220.97;5011263;28;20021;-65
2021/10/16 11:27:25;;;;;;;20.90;14.27;;;;;;;12.23;100.00;95183.34;5011271;28;20136;-65